createdAt,value
2019-05-23T00:01:20.476Z,8.10
2019-05-23T00:04:08.527Z,8.10
2019-05-23T00:06:55.073Z,8.00
2019-05-23T00:09:43.300Z,8.00
2019-05-23T00:12:43.238Z,7.90
2019-05-23T00:15:34.892Z,8.00
2019-05-23T00:18:22.338Z,7.90
2019-05-23T00:21:09.475Z,7.90
2019-05-23T00:23:56.827Z,7.90
2019-05-23T00:26:43.484Z,7.90
2019-05-23T00:29:30.092Z,7.80
2019-05-23T00:32:24.173Z,7.80
2019-05-23T00:35:13.524Z,7.70
2019-05-23T00:38:02.315Z,7.60
2019-05-23T00:40:50.621Z,7.60
2019-05-23T00:43:37.966Z,7.60
2019-05-23T00:46:24.570Z,7.60
2019-05-23T00:49:12.866Z,7.50
2019-05-23T00:52:00.284Z,7.50
2019-05-23T00:54:47.800Z,7.40
2019-05-23T00:57:35.885Z,7.40
2019-05-23T01:00:23.500Z,7.30
2019-05-23T01:03:11.464Z,7.30
2019-05-23T01:05:58.814Z,7.10
2019-05-23T01:08:46.598Z,7.20
2019-05-23T01:11:33.393Z,7.10
2019-05-23T01:14:20.328Z,7.10
2019-05-23T01:17:07.291Z,7.20
2019-05-23T01:19:54.364Z,7.20
2019-05-23T01:22:41.129Z,7.20
2019-05-23T01:25:27.999Z,7.10
2019-05-23T01:28:14.499Z,7.00
2019-05-23T01:31:02.327Z,7.00
2019-05-23T01:33:49.432Z,7.00
2019-05-23T01:36:36.791Z,6.90
2019-05-23T01:39:23.260Z,6.90
2019-05-23T01:42:10.122Z,6.90
2019-05-23T01:44:59.231Z,6.80
2019-05-23T01:47:47.599Z,6.90
2019-05-23T01:50:33.794Z,6.80
2019-05-23T01:53:22.271Z,6.70
2019-05-23T01:56:09.516Z,6.70
2019-05-23T01:58:56.440Z,6.50
2019-05-23T02:01:42.863Z,6.40
2019-05-23T02:04:30.166Z,6.50
2019-05-23T02:07:16.526Z,6.50
2019-05-23T02:10:05.539Z,6.60
2019-05-23T02:12:52.366Z,6.50
2019-05-23T02:15:40.116Z,6.30
2019-05-23T02:18:28.155Z,6.30
2019-05-23T02:21:16.213Z,6.30
2019-05-23T02:24:02.862Z,6.20
2019-05-23T02:26:49.697Z,6.20
2019-05-23T02:29:35.904Z,6.20
2019-05-23T02:32:23.449Z,6.10
2019-05-23T02:35:11.481Z,6.00
2019-05-23T02:38:11.809Z,6.10
2019-05-23T02:41:03.440Z,6.00
2019-05-23T02:43:51.507Z,6.10
2019-05-23T02:46:45.145Z,6.10
2019-05-23T02:49:33.407Z,6.10
2019-05-23T02:52:23.061Z,6.00
2019-05-23T02:55:12.047Z,6.00
2019-05-23T02:58:00.222Z,5.90
2019-05-23T03:00:55.272Z,5.90
2019-05-23T03:03:39.343Z,5.80
2019-05-23T03:06:27.000Z,5.80
2019-05-23T03:09:15.231Z,5.80
2019-05-23T03:12:03.296Z,5.70
2019-05-23T03:14:50.740Z,5.80
2019-05-23T03:17:39.250Z,5.70
2019-05-23T03:20:26.956Z,5.70
2019-05-23T03:23:15.486Z,5.70
2019-05-23T03:26:03.802Z,5.60
2019-05-23T03:28:51.066Z,5.60
2019-05-23T03:31:40.370Z,5.60
2019-05-23T03:34:28.165Z,5.50
2019-05-23T03:37:15.062Z,5.50
2019-05-23T03:40:02.078Z,5.60
2019-05-23T03:42:48.382Z,5.50
2019-05-23T03:45:39.566Z,5.50
2019-05-23T03:48:24.735Z,5.40
2019-05-23T03:51:12.430Z,5.50
2019-05-23T03:54:01.222Z,5.50
2019-05-23T03:56:48.211Z,5.50
2019-05-23T03:59:35.644Z,5.50
2019-05-23T04:02:23.811Z,5.60
2019-05-23T04:05:11.481Z,5.60
2019-05-23T04:07:58.793Z,5.50
2019-05-23T04:10:50.778Z,5.60
2019-05-23T04:13:34.801Z,5.60
2019-05-23T04:16:22.697Z,5.70
2019-05-23T04:19:11.011Z,5.60
2019-05-23T04:21:57.577Z,5.60
2019-05-23T04:24:44.638Z,5.70
2019-05-23T04:27:31.074Z,5.70
2019-05-23T04:30:18.432Z,5.80
2019-05-23T04:33:05.352Z,5.90
2019-05-23T04:35:51.980Z,6.00
2019-05-23T04:38:38.969Z,6.10
2019-05-23T04:41:26.806Z,6.20
2019-05-23T04:44:13.613Z,6.30
2019-05-23T04:47:00.180Z,6.40
2019-05-23T04:49:47.726Z,6.40
2019-05-23T04:52:34.297Z,6.50
2019-05-23T04:55:21.358Z,6.50
2019-05-23T04:58:08.172Z,6.60
2019-05-23T05:00:54.994Z,6.60
2019-05-23T05:03:42.092Z,6.70
2019-05-23T05:06:29.550Z,6.70
2019-05-23T05:09:17.764Z,6.90
2019-05-23T05:12:05.014Z,7.00
2019-05-23T05:14:51.571Z,7.10
2019-05-23T05:17:38.532Z,7.30
2019-05-23T05:20:25.084Z,7.30
2019-05-23T05:23:12.688Z,7.50
2019-05-23T05:25:59.641Z,7.50
2019-05-23T05:28:46.749Z,7.70
2019-05-23T05:31:33.199Z,7.80
2019-05-23T05:34:19.975Z,7.70
2019-05-23T05:37:06.190Z,7.80
2019-05-23T05:39:53.085Z,7.80
2019-05-23T05:42:41.236Z,7.90
2019-05-23T05:45:27.908Z,8.00
2019-05-23T05:48:14.515Z,8.10
2019-05-23T05:51:01.744Z,8.20
2019-05-23T05:53:48.500Z,8.30
2019-05-23T05:56:35.537Z,8.40
2019-05-23T05:59:22.181Z,8.50
2019-05-23T06:02:10.398Z,8.60
2019-05-23T06:04:57.052Z,8.80
2019-05-23T06:07:43.708Z,8.90
2019-05-23T06:10:30.475Z,9.00
2019-05-23T06:13:17.247Z,9.10
2019-05-23T06:16:04.376Z,9.30
2019-05-23T06:18:51.088Z,9.40
2019-05-23T06:21:37.683Z,9.50
2019-05-23T06:24:41.591Z,9.70
2019-05-23T06:27:14.696Z,9.90
2019-05-23T06:30:01.280Z,10.00
2019-05-23T06:32:47.979Z,10.00
2019-05-23T06:35:35.437Z,10.10
2019-05-23T06:38:22.299Z,10.20
2019-05-23T06:41:08.903Z,10.30
2019-05-23T06:43:55.738Z,10.40
2019-05-23T06:46:42.320Z,10.70
2019-05-23T06:49:29.030Z,10.70
2019-05-23T06:52:15.514Z,10.80
2019-05-23T06:55:01.918Z,10.90
2019-05-23T06:57:48.090Z,10.90
2019-05-23T07:00:35.269Z,11.00
2019-05-23T07:03:22.246Z,11.10
2019-05-23T07:06:09.263Z,11.30
2019-05-23T07:08:55.616Z,11.40
2019-05-23T07:11:41.910Z,11.50
2019-05-23T07:14:28.618Z,11.70
2019-05-23T07:17:17.599Z,11.80
2019-05-23T07:20:06.046Z,12.00
2019-05-23T07:22:52.509Z,12.20
2019-05-23T07:25:38.910Z,12.20
2019-05-23T07:28:25.595Z,12.30
2019-05-23T07:31:12.280Z,12.40
2019-05-23T07:34:02.295Z,12.70
2019-05-23T07:36:47.102Z,13.10
2019-05-23T07:39:33.694Z,13.20
2019-05-23T07:42:20.069Z,13.20
2019-05-23T07:45:08.737Z,13.20
2019-05-23T07:47:55.194Z,13.40
2019-05-23T07:50:42.265Z,13.40
2019-05-23T07:53:33.375Z,13.60
2019-05-23T07:56:21.838Z,13.80
2019-05-23T07:59:08.581Z,13.90
2019-05-23T08:01:58.605Z,14.00
2019-05-23T08:04:45.823Z,14.20
2019-05-23T08:07:33.243Z,14.30
2019-05-23T08:10:33.079Z,14.30
2019-05-23T08:13:08.974Z,14.40
2019-05-23T08:15:55.323Z,14.60
2019-05-23T08:18:42.375Z,14.60
2019-05-23T08:21:29.287Z,14.80
2019-05-23T08:24:17.497Z,15.00
2019-05-23T08:27:05.649Z,15.10
2019-05-23T08:29:52.834Z,15.20
2019-05-23T08:32:39.307Z,15.40
2019-05-23T08:35:25.852Z,15.50
2019-05-23T08:38:13.324Z,15.70
2019-05-23T08:40:59.595Z,16.00
2019-05-23T08:43:46.225Z,16.20
2019-05-23T08:46:33.112Z,16.00
2019-05-23T08:49:20.814Z,16.30
2019-05-23T08:52:07.304Z,16.50
2019-05-23T08:54:55.404Z,16.60
2019-05-23T08:57:42.026Z,16.70
2019-05-23T09:00:33.087Z,16.70
2019-05-23T09:03:19.832Z,16.80
2019-05-23T09:06:07.113Z,17.10
2019-05-23T09:08:54.954Z,17.20
2019-05-23T09:11:42.121Z,17.30
2019-05-23T09:14:29.047Z,17.20
2019-05-23T09:17:16.083Z,17.50
2019-05-23T09:20:04.401Z,17.70
2019-05-23T09:22:50.641Z,17.60
2019-05-23T09:25:37.146Z,18.00
2019-05-23T09:28:24.183Z,17.70
2019-05-23T09:31:11.196Z,18.10
2019-05-23T09:33:57.979Z,18.80
2019-05-23T09:36:46.520Z,19.10
2019-05-23T09:39:35.546Z,20.10
2019-05-23T09:42:23.795Z,20.80
2019-05-23T09:45:12.290Z,20.70
2019-05-23T09:48:00.470Z,21.00
2019-05-23T09:50:48.469Z,21.10
2019-05-23T09:53:36.711Z,21.50
2019-05-23T09:56:23.234Z,22.00
2019-05-23T09:59:09.954Z,21.70
2019-05-23T10:01:57.261Z,21.40
2019-05-23T10:04:43.969Z,21.40
2019-05-23T10:07:30.921Z,20.80
2019-05-23T10:10:18.703Z,21.60
2019-05-23T10:13:05.512Z,22.10
2019-05-23T10:16:03.228Z,22.70
2019-05-23T10:18:50.035Z,22.50
2019-05-23T10:21:36.512Z,22.30
2019-05-23T10:24:22.881Z,22.40
2019-05-23T10:27:11.450Z,22.90
2019-05-23T10:29:58.009Z,23.30
2019-05-23T10:32:44.558Z,23.50
2019-05-23T10:35:31.737Z,23.30
2019-05-23T10:38:18.381Z,23.70
2019-05-23T10:41:05.321Z,24.10
2019-05-23T10:43:52.179Z,24.60
2019-05-23T10:46:39.084Z,24.10
2019-05-23T10:49:25.864Z,24.50
2019-05-23T10:52:12.369Z,24.70
2019-05-23T10:54:58.889Z,24.50
2019-05-23T10:57:45.430Z,24.60
2019-05-23T11:00:32.516Z,24.90
2019-05-23T11:03:18.739Z,25.50
2019-05-23T11:06:15.525Z,25.50
2019-05-23T11:08:55.161Z,25.60
2019-05-23T11:11:42.497Z,25.60
2019-05-23T11:14:28.978Z,25.30
2019-05-23T11:17:15.886Z,26.00
2019-05-23T11:20:02.918Z,25.80
2019-05-23T11:22:49.401Z,26.00
2019-05-23T11:25:36.596Z,26.50
2019-05-23T11:28:23.906Z,25.50
2019-05-23T11:31:11.630Z,25.30
2019-05-23T11:33:59.415Z,25.90
2019-05-23T11:36:47.047Z,26.40
2019-05-23T11:39:42.274Z,27.90
2019-05-23T11:42:24.587Z,27.60
2019-05-23T11:45:12.780Z,28.30
2019-05-23T11:48:00.223Z,30.50
2019-05-23T11:50:47.888Z,29.40
2019-05-23T11:53:35.660Z,29.30
2019-05-23T11:56:23.469Z,27.30
2019-05-23T11:59:11.105Z,26.80
2019-05-23T12:02:00.997Z,27.70
2019-05-23T12:04:48.556Z,27.40
2019-05-23T12:07:37.697Z,28.70
2019-05-23T12:10:25.728Z,29.00
2019-05-23T12:13:13.682Z,28.70
2019-05-23T12:16:01.477Z,27.90
2019-05-23T12:18:49.103Z,28.40
2019-05-23T12:21:36.844Z,29.40
2019-05-23T12:24:24.784Z,29.10
2019-05-23T12:27:13.091Z,30.10
2019-05-23T12:30:01.253Z,30.00
2019-05-23T12:32:49.299Z,28.50
2019-05-23T12:35:37.152Z,28.80
2019-05-23T12:38:24.887Z,29.30
2019-05-23T12:41:14.107Z,30.10
2019-05-23T12:44:02.024Z,30.10
2019-05-23T12:46:50.162Z,29.00
2019-05-23T12:49:42.467Z,28.90
2019-05-23T12:52:30.216Z,28.70
2019-05-23T12:55:18.123Z,28.40
2019-05-23T12:58:06.053Z,29.40
2019-05-23T13:01:01.735Z,30.10
2019-05-23T13:03:49.881Z,28.30
2019-05-23T13:06:37.458Z,28.30
2019-05-23T13:09:25.097Z,28.70
2019-05-23T13:12:15.813Z,29.20
2019-05-23T13:15:02.521Z,29.50
2019-05-23T13:17:50.202Z,30.00
2019-05-23T13:20:38.551Z,30.10
2019-05-23T13:23:26.316Z,30.10
2019-05-23T13:26:14.276Z,29.70
2019-05-23T13:29:02.019Z,28.40
2019-05-23T13:31:49.807Z,29.20
2019-05-23T13:34:37.876Z,30.50
2019-05-23T13:37:26.837Z,29.50
2019-05-23T13:40:15.015Z,29.70
2019-05-23T13:43:06.649Z,29.40
2019-05-23T13:45:52.128Z,29.60
2019-05-23T13:48:40.269Z,30.10
2019-05-23T13:51:27.917Z,31.00
2019-05-23T13:54:15.914Z,30.00
2019-05-23T13:57:04.533Z,29.20
2019-05-23T13:59:53.784Z,30.30
2019-05-23T14:02:42.123Z,29.00
2019-05-23T14:05:30.136Z,28.80
2019-05-23T14:08:19.257Z,28.60
2019-05-23T14:11:07.754Z,29.50
2019-05-23T14:14:00.149Z,29.40
2019-05-23T14:16:49.650Z,28.60
2019-05-23T14:19:37.434Z,28.00
2019-05-23T14:22:26.044Z,28.70
2019-05-23T14:25:14.407Z,29.10
2019-05-23T14:28:04.002Z,29.50
2019-05-23T14:30:56.485Z,29.10
2019-05-23T14:34:03.903Z,29.70
2019-05-23T14:36:59.026Z,30.10
2019-05-23T14:39:48.724Z,28.60
2019-05-23T14:42:53.593Z,28.80
2019-05-23T14:45:47.874Z,27.80
2019-05-23T14:48:41.225Z,27.20
2019-05-23T14:51:33.945Z,28.30
2019-05-23T14:54:26.182Z,28.60
2019-05-23T14:57:14.370Z,28.70
2019-05-23T15:00:02.143Z,28.10
2019-05-23T15:02:50.450Z,29.00
2019-05-23T15:05:38.695Z,28.40
2019-05-23T15:08:26.955Z,29.00
2019-05-23T15:11:14.607Z,28.20
2019-05-23T15:14:02.408Z,28.70
2019-05-23T15:16:50.117Z,27.40
2019-05-23T15:19:44.137Z,28.30
2019-05-23T15:22:27.525Z,28.60
2019-05-23T15:25:15.582Z,29.20
2019-05-23T15:28:03.682Z,29.10
2019-05-23T15:30:51.379Z,28.10
2019-05-23T15:33:39.249Z,28.40
2019-05-23T15:36:26.877Z,28.60
2019-05-23T15:39:14.703Z,28.20
2019-05-23T15:42:03.064Z,27.80
2019-05-23T15:44:51.020Z,27.20
2019-05-23T15:47:39.105Z,27.60
2019-05-23T15:50:28.348Z,28.10
2019-05-23T15:53:23.871Z,28.30
2019-05-23T15:56:27.946Z,28.30
2019-05-23T15:59:29.476Z,28.00
2019-05-23T16:02:21.849Z,27.70
2019-05-23T16:05:11.678Z,26.30
2019-05-23T16:07:59.642Z,26.30
2019-05-23T16:10:47.502Z,26.30
2019-05-23T16:13:35.555Z,25.50
2019-05-23T16:16:23.733Z,26.40
2019-05-23T16:19:11.221Z,27.40
2019-05-23T16:21:59.056Z,27.30
2019-05-23T16:24:46.868Z,27.80
2019-05-23T16:27:34.859Z,26.90
2019-05-23T16:30:22.518Z,26.50
2019-05-23T16:33:10.357Z,26.00
2019-05-23T16:35:58.409Z,26.20
2019-05-23T16:38:46.018Z,26.20
2019-05-23T16:41:34.070Z,26.50
2019-05-23T16:44:21.981Z,25.90
2019-05-23T16:47:09.648Z,25.90
2019-05-23T16:49:57.910Z,25.50
2019-05-23T16:52:46.245Z,25.40
2019-05-23T16:55:44.804Z,25.10
2019-05-23T16:58:46.713Z,24.80
2019-05-23T17:01:59.130Z,24.50
2019-05-23T17:05:09.170Z,23.50
2019-05-23T17:07:58.526Z,23.40
2019-05-23T17:10:51.637Z,23.10
2019-05-23T17:13:50.180Z,22.10
2019-05-23T17:16:42.681Z,22.20
2019-05-23T17:19:39.638Z,22.20
2019-05-23T17:22:38.735Z,22.30
2019-05-23T17:25:43.452Z,22.20
2019-05-23T17:28:36.292Z,22.10
2019-05-23T17:31:44.381Z,22.20
2019-05-23T17:34:32.591Z,22.10
2019-05-23T17:37:22.763Z,21.50
2019-05-23T17:40:24.189Z,21.60
2019-05-23T17:43:01.424Z,21.70
2019-05-23T17:45:49.546Z,21.40
2019-05-23T17:48:37.454Z,21.20
2019-05-23T17:51:25.897Z,21.30
2019-05-23T17:54:15.291Z,21.00
2019-05-23T17:57:04.013Z,20.80
2019-05-23T17:59:52.027Z,20.80
2019-05-23T18:02:40.840Z,21.00
2019-05-23T18:05:29.620Z,20.70
2019-05-23T18:08:18.928Z,20.80
2019-05-23T18:11:07.066Z,20.80
2019-05-23T18:13:55.573Z,20.50
2019-05-23T18:16:44.569Z,20.60
2019-05-23T18:19:32.988Z,20.50
2019-05-23T18:22:21.263Z,20.30
2019-05-23T18:25:12.218Z,19.90
2019-05-23T18:28:00.540Z,20.00
2019-05-23T18:31:00.044Z,19.90
2019-05-23T18:33:48.509Z,19.80
2019-05-23T18:36:37.274Z,19.90
2019-05-23T18:39:25.775Z,19.70
2019-05-23T18:42:14.676Z,19.60
2019-05-23T18:45:04.303Z,19.50
2019-05-23T18:47:52.545Z,19.30
2019-05-23T18:50:41.349Z,19.20
2019-05-23T18:53:29.195Z,19.20
2019-05-23T18:56:17.758Z,19.10
2019-05-23T18:59:06.126Z,19.00
2019-05-23T19:01:54.551Z,18.90
2019-05-23T19:04:42.428Z,18.70
2019-05-23T19:07:30.264Z,18.60
2019-05-23T19:10:18.018Z,18.30
2019-05-23T19:13:05.683Z,18.10
2019-05-23T19:15:53.500Z,18.00
2019-05-23T19:18:41.463Z,17.80
2019-05-23T19:21:29.366Z,17.70
2019-05-23T19:24:17.982Z,17.60
2019-05-23T19:27:05.884Z,17.40
2019-05-23T19:29:54.485Z,17.20
2019-05-23T19:32:42.233Z,17.10
2019-05-23T19:35:29.765Z,16.90
2019-05-23T19:38:18.386Z,16.90
2019-05-23T19:41:05.880Z,16.80
2019-05-23T19:43:53.652Z,16.60
2019-05-23T19:46:41.839Z,16.50
2019-05-23T19:49:29.657Z,16.10
2019-05-23T19:52:17.626Z,16.20
2019-05-23T19:55:07.267Z,16.30
2019-05-23T19:57:55.605Z,16.10
2019-05-23T20:00:44.886Z,16.10
2019-05-23T20:03:32.951Z,15.90
2019-05-23T20:06:20.815Z,15.80
2019-05-23T20:09:11.433Z,15.70
2019-05-23T20:11:59.088Z,15.50
2019-05-23T20:14:47.116Z,15.60
2019-05-23T20:17:35.022Z,15.50
2019-05-23T20:20:22.623Z,15.40
2019-05-23T20:23:11.081Z,15.30
2019-05-23T20:25:58.172Z,15.30
2019-05-23T20:28:45.871Z,15.30
2019-05-23T20:31:33.358Z,15.10
2019-05-23T20:34:20.656Z,15.10
2019-05-23T20:37:08.768Z,15.00
2019-05-23T20:39:56.245Z,14.80
2019-05-23T20:42:43.764Z,14.50
2019-05-23T20:45:31.433Z,14.40
2019-05-23T20:48:19.023Z,14.30
2019-05-23T20:51:06.734Z,14.30
2019-05-23T20:53:53.977Z,14.20
2019-05-23T20:56:41.451Z,14.20
2019-05-23T20:59:28.783Z,14.10
2019-05-23T21:02:16.845Z,14.00
2019-05-23T21:05:06.301Z,14.00
2019-05-23T21:07:53.873Z,14.00
2019-05-23T21:10:44.430Z,13.80
2019-05-23T21:13:31.893Z,13.70
2019-05-23T21:16:19.306Z,13.60
2019-05-23T21:19:07.124Z,13.50
2019-05-23T21:21:54.783Z,13.30
2019-05-23T21:24:42.422Z,13.40
2019-05-23T21:27:30.017Z,13.30
2019-05-23T21:30:17.593Z,13.20
2019-05-23T21:33:05.852Z,13.00
2019-05-23T21:35:53.285Z,13.00
2019-05-23T21:38:40.903Z,13.00
2019-05-23T21:41:28.224Z,12.80
2019-05-23T21:44:15.432Z,12.70
2019-05-23T21:47:03.040Z,12.70
2019-05-23T21:49:50.601Z,12.70
2019-05-23T21:52:37.848Z,12.50
2019-05-23T21:55:40.044Z,12.50
2019-05-23T21:58:27.609Z,12.30
2019-05-23T22:01:19.610Z,12.40
2019-05-23T22:04:15.155Z,12.40
2019-05-23T22:07:02.542Z,12.30
2019-05-23T22:09:49.816Z,12.20
2019-05-23T22:12:37.724Z,12.20
2019-05-23T22:15:36.110Z,12.20
2019-05-23T22:18:25.130Z,12.20
2019-05-23T22:21:12.822Z,12.20
2019-05-23T22:24:00.114Z,12.10
2019-05-23T22:26:47.478Z,11.90
2019-05-23T22:29:34.937Z,11.80
2019-05-23T22:32:23.491Z,11.80
2019-05-23T22:35:13.056Z,11.80
2019-05-23T22:38:00.917Z,11.70
2019-05-23T22:40:48.433Z,11.60
2019-05-23T22:43:35.824Z,11.40
2019-05-23T22:46:23.461Z,11.50
2019-05-23T22:49:10.770Z,11.40
2019-05-23T22:51:57.772Z,11.30
2019-05-23T22:54:45.364Z,10.90
2019-05-23T22:57:33.257Z,11.10
2019-05-23T23:00:24.875Z,11.10
2019-05-23T23:03:12.313Z,11.00
2019-05-23T23:05:59.454Z,10.90
2019-05-23T23:08:47.141Z,10.90
2019-05-23T23:11:34.483Z,10.80
2019-05-23T23:14:21.889Z,10.90
2019-05-23T23:17:09.539Z,10.80
2019-05-23T23:19:57.390Z,10.80
2019-05-23T23:22:45.045Z,10.80
2019-05-23T23:25:33.495Z,10.70
2019-05-23T23:28:21.104Z,10.70
2019-05-23T23:31:08.345Z,10.70
2019-05-23T23:33:55.864Z,10.60
2019-05-23T23:36:43.087Z,10.50
2019-05-23T23:39:30.724Z,10.40
2019-05-23T23:42:18.708Z,10.20
2019-05-23T23:45:25.105Z,10.20
2019-05-23T23:48:30.146Z,10.20
2019-05-23T23:51:35.391Z,10.20
2019-05-23T23:54:41.190Z,10.10
2019-05-23T23:57:46.484Z,10.20
